sensor_id;sensor_type;location;lat;lon;timestamp;P1;durP1;ratioP1;P2;durP2;ratioP2
12762;SDS011;6445;52.490;13.378;2023-12-07T00:00:12;39.88;;;22.60;;
12762;SDS011;6445;52.490;13.378;2023-12-07T00:02:38;39.65;;;22.83;;
12762;SDS011;6445;52.490;13.378;2023-12-07T00:05:03;38.20;;;22.55;;
12762;SDS011;6445;52.490;13.378;2023-12-07T00:07:29;39.85;;;23.35;;
12762;SDS011;6445;52.490;13.378;2023-12-07T00:09:54;36.50;;;21.85;;
12762;SDS011;6445;52.490;13.378;2023-12-07T00:12:19;38.40;;;22.70;;
12762;SDS011;6445;52.490;13.378;2023-12-07T00:14:45;37.67;;;22.58;;
12762;SDS011;6445;52.490;13.378;2023-12-07T00:17:11;43.20;;;23.42;;
12762;SDS011;6445;52.490;13.378;2023-12-07T00:19:36;39.40;;;22.80;;
12762;SDS011;6445;52.490;13.378;2023-12-07T00:22:01;39.83;;;23.35;;
12762;SDS011;6445;52.490;13.378;2023-12-07T00:24:26;38.28;;;22.38;;
12762;SDS011;6445;52.490;13.378;2023-12-07T00:26:52;35.30;;;22.23;;
12762;SDS011;6445;52.490;13.378;2023-12-07T00:29:17;36.38;;;21.80;;
12762;SDS011;6445;52.490;13.378;2023-12-07T00:31:42;38.65;;;22.55;;
12762;SDS011;6445;52.490;13.378;2023-12-07T00:34:08;39.90;;;22.70;;
12762;SDS011;6445;52.490;13.378;2023-12-07T00:36:34;35.65;;;22.02;;
12762;SDS011;6445;52.490;13.378;2023-12-07T00:39:00;39.60;;;22.75;;
12762;SDS011;6445;52.490;13.378;2023-12-07T00:41:25;35.05;;;21.50;;
12762;SDS011;6445;52.490;13.378;2023-12-07T00:43:50;37.67;;;21.88;;
12762;SDS011;6445;52.490;13.378;2023-12-07T00:46:16;37.83;;;21.90;;
12762;SDS011;6445;52.490;13.378;2023-12-07T00:48:41;37.53;;;22.88;;
12762;SDS011;6445;52.490;13.378;2023-12-07T00:51:06;39.60;;;22.65;;
12762;SDS011;6445;52.490;13.378;2023-12-07T00:53:32;39.58;;;23.27;;
12762;SDS011;6445;52.490;13.378;2023-12-07T00:55:57;36.35;;;22.05;;
12762;SDS011;6445;52.490;13.378;2023-12-07T00:58:22;34.60;;;21.67;;
12762;SDS011;6445;52.490;13.378;2023-12-07T01:00:48;37.95;;;22.35;;
12762;SDS011;6445;52.490;13.378;2023-12-07T01:03:13;38.10;;;22.67;;
12762;SDS011;6445;52.490;13.378;2023-12-07T01:05:38;37.45;;;21.90;;
12762;SDS011;6445;52.490;13.378;2023-12-07T01:08:04;38.60;;;21.90;;
12762;SDS011;6445;52.490;13.378;2023-12-07T01:10:29;34.63;;;20.67;;
12762;SDS011;6445;52.490;13.378;2023-12-07T01:12:54;36.17;;;21.80;;
12762;SDS011;6445;52.490;13.378;2023-12-07T01:15:20;35.35;;;22.15;;
12762;SDS011;6445;52.490;13.378;2023-12-07T01:17:45;36.03;;;22.30;;
12762;SDS011;6445;52.490;13.378;2023-12-07T01:20:10;35.88;;;21.98;;
12762;SDS011;6445;52.490;13.378;2023-12-07T01:22:38;38.78;;;22.85;;
12762;SDS011;6445;52.490;13.378;2023-12-07T01:25:04;36.80;;;21.80;;
12762;SDS011;6445;52.490;13.378;2023-12-07T01:27:30;36.85;;;21.85;;
12762;SDS011;6445;52.490;13.378;2023-12-07T01:29:56;35.13;;;21.00;;
12762;SDS011;6445;52.490;13.378;2023-12-07T01:32:21;39.15;;;22.25;;
12762;SDS011;6445;52.490;13.378;2023-12-07T01:34:47;33.65;;;21.23;;
12762;SDS011;6445;52.490;13.378;2023-12-07T01:37:12;36.28;;;21.52;;
12762;SDS011;6445;52.490;13.378;2023-12-07T01:39:37;39.28;;;21.42;;
12762;SDS011;6445;52.490;13.378;2023-12-07T01:42:02;36.25;;;21.92;;
12762;SDS011;6445;52.490;13.378;2023-12-07T01:44:28;35.65;;;21.40;;
12762;SDS011;6445;52.490;13.378;2023-12-07T01:46:54;37.28;;;22.08;;
12762;SDS011;6445;52.490;13.378;2023-12-07T01:49:19;36.42;;;22.25;;
12762;SDS011;6445;52.490;13.378;2023-12-07T01:51:45;34.70;;;22.08;;
12762;SDS011;6445;52.490;13.378;2023-12-07T01:54:10;35.47;;;21.42;;
12762;SDS011;6445;52.490;13.378;2023-12-07T01:56:36;36.50;;;21.65;;
12762;SDS011;6445;52.490;13.378;2023-12-07T01:59:01;38.38;;;22.55;;
12762;SDS011;6445;52.490;13.378;2023-12-07T02:01:28;38.30;;;22.40;;
12762;SDS011;6445;52.490;13.378;2023-12-07T02:03:53;38.17;;;22.35;;
12762;SDS011;6445;52.490;13.378;2023-12-07T02:06:20;34.42;;;21.25;;
12762;SDS011;6445;52.490;13.378;2023-12-07T02:08:45;38.20;;;22.15;;
12762;SDS011;6445;52.490;13.378;2023-12-07T02:11:11;35.22;;;21.38;;
12762;SDS011;6445;52.490;13.378;2023-12-07T02:13:36;34.70;;;21.45;;
12762;SDS011;6445;52.490;13.378;2023-12-07T02:16:03;38.22;;;22.90;;
12762;SDS011;6445;52.490;13.378;2023-12-07T02:18:45;38.33;;;22.98;;
12762;SDS011;6445;52.490;13.378;2023-12-07T02:21:20;35.47;;;22.05;;
12762;SDS011;6445;52.490;13.378;2023-12-07T02:23:50;37.45;;;22.58;;
12762;SDS011;6445;52.490;13.378;2023-12-07T02:26:18;37.90;;;22.10;;
12762;SDS011;6445;52.490;13.378;2023-12-07T02:28:45;38.45;;;22.23;;
12762;SDS011;6445;52.490;13.378;2023-12-07T02:31:10;37.92;;;22.80;;
12762;SDS011;6445;52.490;13.378;2023-12-07T02:33:35;41.22;;;23.63;;
12762;SDS011;6445;52.490;13.378;2023-12-07T02:36:01;36.70;;;22.55;;
12762;SDS011;6445;52.490;13.378;2023-12-07T02:38:26;38.75;;;23.77;;
12762;SDS011;6445;52.490;13.378;2023-12-07T02:40:53;35.38;;;21.85;;
12762;SDS011;6445;52.490;13.378;2023-12-07T02:43:20;36.28;;;21.55;;
12762;SDS011;6445;52.490;13.378;2023-12-07T02:45:46;36.05;;;21.95;;
12762;SDS011;6445;52.490;13.378;2023-12-07T02:48:12;35.58;;;21.75;;
12762;SDS011;6445;52.490;13.378;2023-12-07T02:50:37;35.40;;;21.85;;
12762;SDS011;6445;52.490;13.378;2023-12-07T02:53:03;36.65;;;22.17;;
12762;SDS011;6445;52.490;13.378;2023-12-07T02:55:28;38.50;;;22.42;;
12762;SDS011;6445;52.490;13.378;2023-12-07T02:57:53;37.47;;;23.67;;
12762;SDS011;6445;52.490;13.378;2023-12-07T03:00:18;36.15;;;20.75;;
12762;SDS011;6445;52.490;13.378;2023-12-07T03:02:44;38.13;;;22.45;;
12762;SDS011;6445;52.490;13.378;2023-12-07T03:05:09;40.33;;;22.35;;
12762;SDS011;6445;52.490;13.378;2023-12-07T03:07:35;40.47;;;22.80;;
12762;SDS011;6445;52.490;13.378;2023-12-07T03:10:00;38.40;;;22.80;;
12762;SDS011;6445;52.490;13.378;2023-12-07T03:12:26;40.45;;;23.48;;
12762;SDS011;6445;52.490;13.378;2023-12-07T03:14:51;36.97;;;22.55;;
12762;SDS011;6445;52.490;13.378;2023-12-07T03:17:16;36.65;;;22.13;;
12762;SDS011;6445;52.490;13.378;2023-12-07T03:19:42;42.10;;;23.33;;
12762;SDS011;6445;52.490;13.378;2023-12-07T03:22:07;37.50;;;21.92;;
12762;SDS011;6445;52.490;13.378;2023-12-07T03:24:37;36.75;;;21.58;;
12762;SDS011;6445;52.490;13.378;2023-12-07T03:27:02;42.92;;;23.67;;
12762;SDS011;6445;52.490;13.378;2023-12-07T03:29:28;38.50;;;23.05;;
12762;SDS011;6445;52.490;13.378;2023-12-07T03:31:53;39.38;;;23.42;;
12762;SDS011;6445;52.490;13.378;2023-12-07T03:34:18;37.10;;;22.45;;
12762;SDS011;6445;52.490;13.378;2023-12-07T03:36:47;39.83;;;22.85;;
12762;SDS011;6445;52.490;13.378;2023-12-07T03:39:16;35.72;;;21.77;;
12762;SDS011;6445;52.490;13.378;2023-12-07T03:41:47;40.30;;;23.70;;
12762;SDS011;6445;52.490;13.378;2023-12-07T03:44:12;42.70;;;24.38;;
12762;SDS011;6445;52.490;13.378;2023-12-07T03:46:38;40.33;;;22.52;;
12762;SDS011;6445;52.490;13.378;2023-12-07T03:49:03;39.63;;;22.92;;
12762;SDS011;6445;52.490;13.378;2023-12-07T03:51:28;43.33;;;24.13;;
12762;SDS011;6445;52.490;13.378;2023-12-07T03:53:55;42.92;;;24.23;;
12762;SDS011;6445;52.490;13.378;2023-12-07T03:56:27;43.85;;;24.95;;
12762;SDS011;6445;52.490;13.378;2023-12-07T03:58:53;45.92;;;24.88;;
12762;SDS011;6445;52.490;13.378;2023-12-07T04:01:21;45.80;;;24.38;;
12762;SDS011;6445;52.490;13.378;2023-12-07T04:03:50;48.08;;;25.52;;
12762;SDS011;6445;52.490;13.378;2023-12-07T04:06:16;47.47;;;25.20;;
12762;SDS011;6445;52.490;13.378;2023-12-07T04:08:41;46.15;;;25.95;;
12762;SDS011;6445;52.490;13.378;2023-12-07T04:11:07;50.28;;;26.42;;
12762;SDS011;6445;52.490;13.378;2023-12-07T04:13:32;52.10;;;26.98;;
12762;SDS011;6445;52.490;13.378;2023-12-07T04:15:58;49.70;;;26.25;;
12762;SDS011;6445;52.490;13.378;2023-12-07T04:18:23;54.78;;;27.00;;
12762;SDS011;6445;52.490;13.378;2023-12-07T04:20:48;48.75;;;25.90;;
12762;SDS011;6445;52.490;13.378;2023-12-07T04:23:13;51.40;;;27.50;;
12762;SDS011;6445;52.490;13.378;2023-12-07T04:25:39;50.88;;;25.73;;
12762;SDS011;6445;52.490;13.378;2023-12-07T04:28:04;53.45;;;26.40;;
12762;SDS011;6445;52.490;13.378;2023-12-07T04:30:29;49.70;;;25.38;;
12762;SDS011;6445;52.490;13.378;2023-12-07T04:32:55;51.00;;;26.77;;
12762;SDS011;6445;52.490;13.378;2023-12-07T04:35:20;51.40;;;26.65;;
12762;SDS011;6445;52.490;13.378;2023-12-07T04:37:45;48.78;;;25.92;;
12762;SDS011;6445;52.490;13.378;2023-12-07T04:40:11;47.60;;;25.65;;
12762;SDS011;6445;52.490;13.378;2023-12-07T04:42:36;48.33;;;25.08;;
12762;SDS011;6445;52.490;13.378;2023-12-07T04:45:02;50.70;;;25.90;;
12762;SDS011;6445;52.490;13.378;2023-12-07T04:47:27;48.70;;;25.33;;
12762;SDS011;6445;52.490;13.378;2023-12-07T04:49:53;48.35;;;25.35;;
12762;SDS011;6445;52.490;13.378;2023-12-07T04:52:18;49.50;;;25.88;;
12762;SDS011;6445;52.490;13.378;2023-12-07T04:54:44;48.47;;;26.15;;
12762;SDS011;6445;52.490;13.378;2023-12-07T04:57:09;51.42;;;26.55;;
12762;SDS011;6445;52.490;13.378;2023-12-07T04:59:34;46.42;;;25.33;;
12762;SDS011;6445;52.490;13.378;2023-12-07T05:02:00;47.70;;;25.13;;
12762;SDS011;6445;52.490;13.378;2023-12-07T05:04:25;50.78;;;26.00;;
12762;SDS011;6445;52.490;13.378;2023-12-07T05:06:50;52.63;;;26.33;;
12762;SDS011;6445;52.490;13.378;2023-12-07T05:09:15;49.13;;;25.90;;
12762;SDS011;6445;52.490;13.378;2023-12-07T05:11:41;52.63;;;25.98;;
12762;SDS011;6445;52.490;13.378;2023-12-07T05:14:06;51.42;;;25.98;;
12762;SDS011;6445;52.490;13.378;2023-12-07T05:16:32;53.97;;;26.40;;
12762;SDS011;6445;52.490;13.378;2023-12-07T05:18:57;55.88;;;25.75;;
12762;SDS011;6445;52.490;13.378;2023-12-07T05:21:22;48.88;;;26.13;;
12762;SDS011;6445;52.490;13.378;2023-12-07T05:23:48;51.22;;;26.17;;
12762;SDS011;6445;52.490;13.378;2023-12-07T05:26:13;51.50;;;26.10;;
12762;SDS011;6445;52.490;13.378;2023-12-07T05:28:39;51.60;;;25.58;;
12762;SDS011;6445;52.490;13.378;2023-12-07T05:31:05;48.35;;;24.67;;
12762;SDS011;6445;52.490;13.378;2023-12-07T05:33:30;50.97;;;25.48;;
12762;SDS011;6445;52.490;13.378;2023-12-07T05:35:55;53.22;;;25.55;;
12762;SDS011;6445;52.490;13.378;2023-12-07T05:38:20;48.50;;;24.67;;
12762;SDS011;6445;52.490;13.378;2023-12-07T05:40:46;51.05;;;24.95;;
12762;SDS011;6445;52.490;13.378;2023-12-07T05:43:11;47.50;;;24.63;;
12762;SDS011;6445;52.490;13.378;2023-12-07T05:45:37;48.90;;;24.83;;
12762;SDS011;6445;52.490;13.378;2023-12-07T05:48:02;50.05;;;24.90;;
12762;SDS011;6445;52.490;13.378;2023-12-07T05:50:27;50.13;;;24.67;;
12762;SDS011;6445;52.490;13.378;2023-12-07T05:52:52;45.85;;;23.73;;
12762;SDS011;6445;52.490;13.378;2023-12-07T05:55:18;49.00;;;24.38;;
12762;SDS011;6445;52.490;13.378;2023-12-07T05:57:44;49.67;;;24.75;;
12762;SDS011;6445;52.490;13.378;2023-12-07T06:00:11;51.25;;;25.27;;
12762;SDS011;6445;52.490;13.378;2023-12-07T06:02:37;50.15;;;24.52;;
12762;SDS011;6445;52.490;13.378;2023-12-07T06:05:03;48.63;;;23.83;;
12762;SDS011;6445;52.490;13.378;2023-12-07T06:07:31;49.38;;;24.30;;
12762;SDS011;6445;52.490;13.378;2023-12-07T06:09:57;49.75;;;23.88;;
12762;SDS011;6445;52.490;13.378;2023-12-07T06:12:22;51.58;;;23.48;;
12762;SDS011;6445;52.490;13.378;2023-12-07T06:14:50;43.13;;;22.02;;
12762;SDS011;6445;52.490;13.378;2023-12-07T06:17:16;49.78;;;22.40;;
12762;SDS011;6445;52.490;13.378;2023-12-07T06:19:41;50.22;;;25.25;;
12762;SDS011;6445;52.490;13.378;2023-12-07T06:22:07;45.35;;;22.60;;
12762;SDS011;6445;52.490;13.378;2023-12-07T06:24:33;43.95;;;22.73;;
12762;SDS011;6445;52.490;13.378;2023-12-07T06:26:58;47.90;;;22.90;;
12762;SDS011;6445;52.490;13.378;2023-12-07T06:29:24;50.08;;;22.52;;
12762;SDS011;6445;52.490;13.378;2023-12-07T06:31:49;46.65;;;22.75;;
12762;SDS011;6445;52.490;13.378;2023-12-07T06:34:14;45.58;;;21.90;;
12762;SDS011;6445;52.490;13.378;2023-12-07T06:36:40;49.35;;;23.30;;
12762;SDS011;6445;52.490;13.378;2023-12-07T06:39:05;50.22;;;23.08;;
12762;SDS011;6445;52.490;13.378;2023-12-07T06:41:30;50.63;;;23.65;;
12762;SDS011;6445;52.490;13.378;2023-12-07T06:43:55;48.70;;;22.75;;
12762;SDS011;6445;52.490;13.378;2023-12-07T06:46:21;49.30;;;23.85;;
12762;SDS011;6445;52.490;13.378;2023-12-07T06:48:46;48.47;;;22.65;;
12762;SDS011;6445;52.490;13.378;2023-12-07T06:51:11;48.97;;;21.77;;
12762;SDS011;6445;52.490;13.378;2023-12-07T06:53:39;46.65;;;23.27;;
12762;SDS011;6445;52.490;13.378;2023-12-07T06:56:05;50.42;;;22.23;;
12762;SDS011;6445;52.490;13.378;2023-12-07T06:58:31;46.20;;;21.65;;
12762;SDS011;6445;52.490;13.378;2023-12-07T07:00:56;48.08;;;22.30;;
12762;SDS011;6445;52.490;13.378;2023-12-07T07:03:22;44.05;;;20.98;;
12762;SDS011;6445;52.490;13.378;2023-12-07T07:05:47;47.08;;;23.05;;
12762;SDS011;6445;52.490;13.378;2023-12-07T07:08:12;46.55;;;22.08;;
12762;SDS011;6445;52.490;13.378;2023-12-07T07:10:38;47.08;;;22.00;;
12762;SDS011;6445;52.490;13.378;2023-12-07T07:13:03;47.75;;;22.67;;
12762;SDS011;6445;52.490;13.378;2023-12-07T07:15:30;51.28;;;22.92;;
12762;SDS011;6445;52.490;13.378;2023-12-07T07:17:55;49.90;;;22.25;;
12762;SDS011;6445;52.490;13.378;2023-12-07T07:20:20;47.78;;;22.67;;
12762;SDS011;6445;52.490;13.378;2023-12-07T07:22:46;50.17;;;22.88;;
12762;SDS011;6445;52.490;13.378;2023-12-07T07:25:11;51.50;;;21.67;;
12762;SDS011;6445;52.490;13.378;2023-12-07T07:27:37;52.15;;;23.45;;
12762;SDS011;6445;52.490;13.378;2023-12-07T07:30:02;46.85;;;22.50;;
12762;SDS011;6445;52.490;13.378;2023-12-07T07:32:29;50.33;;;21.85;;
12762;SDS011;6445;52.490;13.378;2023-12-07T07:34:54;49.97;;;22.27;;
12762;SDS011;6445;52.490;13.378;2023-12-07T07:37:20;47.42;;;22.92;;
12762;SDS011;6445;52.490;13.378;2023-12-07T07:39:45;45.22;;;22.40;;
12762;SDS011;6445;52.490;13.378;2023-12-07T07:42:11;52.05;;;23.45;;
12762;SDS011;6445;52.490;13.378;2023-12-07T07:44:36;47.35;;;22.33;;
12762;SDS011;6445;52.490;13.378;2023-12-07T07:47:02;47.75;;;22.35;;
12762;SDS011;6445;52.490;13.378;2023-12-07T07:49:27;46.05;;;22.23;;
12762;SDS011;6445;52.490;13.378;2023-12-07T07:51:52;50.47;;;24.10;;
12762;SDS011;6445;52.490;13.378;2023-12-07T07:54:17;48.80;;;22.67;;
12762;SDS011;6445;52.490;13.378;2023-12-07T07:56:43;44.70;;;22.38;;
12762;SDS011;6445;52.490;13.378;2023-12-07T07:59:08;48.65;;;22.83;;
12762;SDS011;6445;52.490;13.378;2023-12-07T08:01:33;45.55;;;22.35;;
12762;SDS011;6445;52.490;13.378;2023-12-07T08:03:59;43.42;;;22.08;;
12762;SDS011;6445;52.490;13.378;2023-12-07T08:06:24;47.55;;;22.10;;
12762;SDS011;6445;52.490;13.378;2023-12-07T08:08:49;41.22;;;21.52;;
12762;SDS011;6445;52.490;13.378;2023-12-07T08:11:14;46.30;;;22.90;;
12762;SDS011;6445;52.490;13.378;2023-12-07T08:13:40;45.15;;;22.10;;
12762;SDS011;6445;52.490;13.378;2023-12-07T08:16:07;38.47;;;20.77;;
12762;SDS011;6445;52.490;13.378;2023-12-07T08:18:34;41.85;;;20.35;;
12762;SDS011;6445;52.490;13.378;2023-12-07T08:20:59;42.80;;;22.10;;
12762;SDS011;6445;52.490;13.378;2023-12-07T08:23:24;41.45;;;20.13;;
12762;SDS011;6445;52.490;13.378;2023-12-07T08:25:49;40.50;;;21.10;;
12762;SDS011;6445;52.490;13.378;2023-12-07T08:28:15;37.28;;;20.17;;
12762;SDS011;6445;52.490;13.378;2023-12-07T08:30:40;39.50;;;20.70;;
12762;SDS011;6445;52.490;13.378;2023-12-07T08:33:05;40.78;;;21.35;;
12762;SDS011;6445;52.490;13.378;2023-12-07T08:35:30;40.90;;;21.60;;
12762;SDS011;6445;52.490;13.378;2023-12-07T08:37:56;40.25;;;21.90;;
12762;SDS011;6445;52.490;13.378;2023-12-07T08:40:21;42.80;;;22.13;;
12762;SDS011;6445;52.490;13.378;2023-12-07T08:42:46;41.42;;;21.58;;
12762;SDS011;6445;52.490;13.378;2023-12-07T08:45:15;40.42;;;21.40;;
12762;SDS011;6445;52.490;13.378;2023-12-07T08:47:41;40.92;;;20.20;;
12762;SDS011;6445;52.490;13.378;2023-12-07T08:50:06;40.63;;;20.50;;
12762;SDS011;6445;52.490;13.378;2023-12-07T08:52:35;40.83;;;21.85;;
12762;SDS011;6445;52.490;13.378;2023-12-07T08:55:00;40.80;;;20.88;;
12762;SDS011;6445;52.490;13.378;2023-12-07T08:57:25;41.15;;;20.90;;
12762;SDS011;6445;52.490;13.378;2023-12-07T08:59:50;42.40;;;21.27;;
12762;SDS011;6445;52.490;13.378;2023-12-07T09:02:16;40.38;;;21.90;;
12762;SDS011;6445;52.490;13.378;2023-12-07T09:04:41;38.30;;;21.13;;
12762;SDS011;6445;52.490;13.378;2023-12-07T09:07:06;41.15;;;20.13;;
12762;SDS011;6445;52.490;13.378;2023-12-07T09:09:32;40.45;;;20.85;;
12762;SDS011;6445;52.490;13.378;2023-12-07T09:11:57;39.72;;;20.50;;
12762;SDS011;6445;52.490;13.378;2023-12-07T09:14:22;36.97;;;20.55;;
12762;SDS011;6445;52.490;13.378;2023-12-07T09:16:48;35.53;;;19.77;;
12762;SDS011;6445;52.490;13.378;2023-12-07T09:19:13;33.80;;;19.38;;
12762;SDS011;6445;52.490;13.378;2023-12-07T09:21:39;35.65;;;19.02;;
12762;SDS011;6445;52.490;13.378;2023-12-07T09:24:05;32.72;;;18.42;;
12762;SDS011;6445;52.490;13.378;2023-12-07T09:26:31;32.80;;;17.70;;
12762;SDS011;6445;52.490;13.378;2023-12-07T09:28:56;35.92;;;18.92;;
12762;SDS011;6445;52.490;13.378;2023-12-07T09:31:22;32.10;;;17.52;;
12762;SDS011;6445;52.490;13.378;2023-12-07T09:33:47;31.27;;;18.15;;
12762;SDS011;6445;52.490;13.378;2023-12-07T09:36:16;31.90;;;18.77;;
12762;SDS011;6445;52.490;13.378;2023-12-07T09:38:43;30.15;;;17.02;;
12762;SDS011;6445;52.490;13.378;2023-12-07T09:41:08;34.67;;;17.63;;
12762;SDS011;6445;52.490;13.378;2023-12-07T09:43:33;33.75;;;17.35;;
12762;SDS011;6445;52.490;13.378;2023-12-07T09:45:59;35.60;;;18.27;;
12762;SDS011;6445;52.490;13.378;2023-12-07T09:48:25;38.08;;;18.88;;
12762;SDS011;6445;52.490;13.378;2023-12-07T09:50:50;34.75;;;18.13;;
12762;SDS011;6445;52.490;13.378;2023-12-07T09:53:17;32.20;;;17.05;;
12762;SDS011;6445;52.490;13.378;2023-12-07T09:55:43;31.23;;;17.35;;
12762;SDS011;6445;52.490;13.378;2023-12-07T09:58:08;33.92;;;18.67;;
12762;SDS011;6445;52.490;13.378;2023-12-07T10:00:33;40.33;;;20.35;;
12762;SDS011;6445;52.490;13.378;2023-12-07T10:02:59;34.20;;;18.70;;
12762;SDS011;6445;52.490;13.378;2023-12-07T10:05:24;40.33;;;19.98;;
12762;SDS011;6445;52.490;13.378;2023-12-07T10:07:49;41.42;;;20.60;;
12762;SDS011;6445;52.490;13.378;2023-12-07T10:10:16;40.30;;;20.95;;
12762;SDS011;6445;52.490;13.378;2023-12-07T10:12:46;43.20;;;21.65;;
12762;SDS011;6445;52.490;13.378;2023-12-07T10:15:18;37.92;;;19.67;;
12762;SDS011;6445;52.490;13.378;2023-12-07T10:20:15;37.25;;;20.42;;
12762;SDS011;6445;52.490;13.378;2023-12-07T10:22:42;40.70;;;21.25;;
12762;SDS011;6445;52.490;13.378;2023-12-07T10:25:07;37.30;;;18.98;;
12762;SDS011;6445;52.490;13.378;2023-12-07T10:27:34;35.20;;;19.75;;
12762;SDS011;6445;52.490;13.378;2023-12-07T10:30:00;37.00;;;18.95;;
12762;SDS011;6445;52.490;13.378;2023-12-07T10:32:25;32.80;;;18.35;;
12762;SDS011;6445;52.490;13.378;2023-12-07T10:34:51;35.92;;;19.23;;
12762;SDS011;6445;52.490;13.378;2023-12-07T10:37:17;37.60;;;19.88;;
12762;SDS011;6445;52.490;13.378;2023-12-07T10:39:42;39.75;;;19.52;;
12762;SDS011;6445;52.490;13.378;2023-12-07T10:42:09;36.83;;;19.52;;
12762;SDS011;6445;52.490;13.378;2023-12-07T10:44:38;37.45;;;19.63;;
12762;SDS011;6445;52.490;13.378;2023-12-07T10:47:07;36.45;;;19.15;;
12762;SDS011;6445;52.490;13.378;2023-12-07T10:49:35;38.70;;;20.92;;
12762;SDS011;6445;52.490;13.378;2023-12-07T10:52:06;35.45;;;20.08;;
12762;SDS011;6445;52.490;13.378;2023-12-07T10:54:37;34.90;;;19.55;;
12762;SDS011;6445;52.490;13.378;2023-12-07T10:57:27;32.08;;;18.08;;
12762;SDS011;6445;52.490;13.378;2023-12-07T10:59:54;35.92;;;18.95;;
12762;SDS011;6445;52.490;13.378;2023-12-07T11:02:21;38.45;;;19.30;;
12762;SDS011;6445;52.490;13.378;2023-12-07T11:04:47;37.53;;;19.63;;
12762;SDS011;6445;52.490;13.378;2023-12-07T11:07:14;36.80;;;18.52;;
12762;SDS011;6445;52.490;13.378;2023-12-07T11:09:45;33.85;;;18.90;;
12762;SDS011;6445;52.490;13.378;2023-12-07T11:12:35;34.17;;;18.13;;
12762;SDS011;6445;52.490;13.378;2023-12-07T11:15:07;36.53;;;19.77;;
12762;SDS011;6445;52.490;13.378;2023-12-07T11:17:52;36.05;;;18.90;;
12762;SDS011;6445;52.490;13.378;2023-12-07T11:20:20;32.58;;;18.27;;
12762;SDS011;6445;52.490;13.378;2023-12-07T11:23:04;32.55;;;19.05;;
12762;SDS011;6445;52.490;13.378;2023-12-07T11:25:30;36.85;;;19.55;;
12762;SDS011;6445;52.490;13.378;2023-12-07T11:28:00;35.30;;;19.23;;
12762;SDS011;6445;52.490;13.378;2023-12-07T11:30:33;34.10;;;19.48;;
12762;SDS011;6445;52.490;13.378;2023-12-07T11:33:02;35.97;;;18.65;;
12762;SDS011;6445;52.490;13.378;2023-12-07T11:35:28;38.10;;;21.05;;
12762;SDS011;6445;52.490;13.378;2023-12-07T11:40:37;35.20;;;18.60;;
12762;SDS011;6445;52.490;13.378;2023-12-07T11:43:05;37.47;;;19.77;;
12762;SDS011;6445;52.490;13.378;2023-12-07T11:45:38;32.45;;;19.40;;
12762;SDS011;6445;52.490;13.378;2023-12-07T11:48:10;36.10;;;20.52;;
12762;SDS011;6445;52.490;13.378;2023-12-07T11:50:46;36.92;;;21.08;;
12762;SDS011;6445;52.490;13.378;2023-12-07T11:53:25;36.80;;;20.80;;
12762;SDS011;6445;52.490;13.378;2023-12-07T11:55:51;37.03;;;20.77;;
12762;SDS011;6445;52.490;13.378;2023-12-07T11:58:17;38.80;;;20.55;;
12762;SDS011;6445;52.490;13.378;2023-12-07T12:00:45;42.53;;;21.73;;
12762;SDS011;6445;52.490;13.378;2023-12-07T12:03:12;39.13;;;21.85;;
12762;SDS011;6445;52.490;13.378;2023-12-07T12:05:38;40.38;;;21.27;;
12762;SDS011;6445;52.490;13.378;2023-12-07T12:08:05;40.22;;;21.55;;
12762;SDS011;6445;52.490;13.378;2023-12-07T12:10:30;36.20;;;20.77;;
12762;SDS011;6445;52.490;13.378;2023-12-07T12:12:56;41.40;;;21.60;;
12762;SDS011;6445;52.490;13.378;2023-12-07T12:15:21;38.50;;;21.90;;
12762;SDS011;6445;52.490;13.378;2023-12-07T12:17:46;38.33;;;21.42;;
12762;SDS011;6445;52.490;13.378;2023-12-07T12:20:13;40.47;;;22.95;;
12762;SDS011;6445;52.490;13.378;2023-12-07T12:22:42;39.75;;;21.88;;
12762;SDS011;6445;52.490;13.378;2023-12-07T12:25:08;43.00;;;23.05;;
12762;SDS011;6445;52.490;13.378;2023-12-07T12:27:33;41.95;;;22.30;;
12762;SDS011;6445;52.490;13.378;2023-12-07T12:29:58;40.33;;;22.65;;
12762;SDS011;6445;52.490;13.378;2023-12-07T12:32:25;40.20;;;23.30;;
12762;SDS011;6445;52.490;13.378;2023-12-07T12:34:51;48.75;;;25.83;;
12762;SDS011;6445;52.490;13.378;2023-12-07T12:37:17;49.75;;;24.65;;
12762;SDS011;6445;52.490;13.378;2023-12-07T12:39:42;46.13;;;23.63;;
12762;SDS011;6445;52.490;13.378;2023-12-07T12:42:07;43.90;;;23.95;;
12762;SDS011;6445;52.490;13.378;2023-12-07T12:44:36;42.45;;;23.60;;
12762;SDS011;6445;52.490;13.378;2023-12-07T12:47:01;48.28;;;24.42;;
12762;SDS011;6445;52.490;13.378;2023-12-07T12:49:36;45.30;;;26.15;;
12762;SDS011;6445;52.490;13.378;2023-12-07T12:52:02;47.53;;;25.10;;
12762;SDS011;6445;52.490;13.378;2023-12-07T12:54:32;44.90;;;25.55;;
12762;SDS011;6445;52.490;13.378;2023-12-07T12:56:57;45.88;;;25.50;;
12762;SDS011;6445;52.490;13.378;2023-12-07T12:59:23;50.28;;;25.45;;
12762;SDS011;6445;52.490;13.378;2023-12-07T13:01:50;47.75;;;26.75;;
12762;SDS011;6445;52.490;13.378;2023-12-07T13:04:15;51.30;;;25.45;;
12762;SDS011;6445;52.490;13.378;2023-12-07T13:06:41;53.65;;;27.83;;
12762;SDS011;6445;52.490;13.378;2023-12-07T13:09:06;51.22;;;26.30;;
12762;SDS011;6445;52.490;13.378;2023-12-07T13:11:31;50.20;;;26.40;;
12762;SDS011;6445;52.490;13.378;2023-12-07T13:13:56;45.22;;;25.83;;
12762;SDS011;6445;52.490;13.378;2023-12-07T13:16:22;49.53;;;27.08;;
12762;SDS011;6445;52.490;13.378;2023-12-07T13:18:47;49.42;;;26.48;;
12762;SDS011;6445;52.490;13.378;2023-12-07T13:21:12;52.50;;;28.10;;
12762;SDS011;6445;52.490;13.378;2023-12-07T13:23:40;56.67;;;28.60;;
12762;SDS011;6445;52.490;13.378;2023-12-07T13:26:05;53.78;;;26.85;;
12762;SDS011;6445;52.490;13.378;2023-12-07T13:28:31;57.92;;;29.77;;
12762;SDS011;6445;52.490;13.378;2023-12-07T13:30:56;52.33;;;27.70;;
12762;SDS011;6445;52.490;13.378;2023-12-07T13:33:22;60.80;;;29.90;;
12762;SDS011;6445;52.490;13.378;2023-12-07T13:35:48;53.58;;;27.73;;
12762;SDS011;6445;52.490;13.378;2023-12-07T13:38:13;58.00;;;29.85;;
12762;SDS011;6445;52.490;13.378;2023-12-07T13:40:39;59.30;;;31.10;;
12762;SDS011;6445;52.490;13.378;2023-12-07T13:43:04;58.05;;;29.75;;
12762;SDS011;6445;52.490;13.378;2023-12-07T13:45:29;56.78;;;31.02;;
12762;SDS011;6445;52.490;13.378;2023-12-07T13:47:54;64.60;;;30.77;;
12762;SDS011;6445;52.490;13.378;2023-12-07T13:50:20;60.20;;;30.45;;
12762;SDS011;6445;52.490;13.378;2023-12-07T13:52:45;63.70;;;31.88;;
12762;SDS011;6445;52.490;13.378;2023-12-07T13:55:10;65.22;;;32.20;;
12762;SDS011;6445;52.490;13.378;2023-12-07T13:57:35;68.53;;;33.13;;
12762;SDS011;6445;52.490;13.378;2023-12-07T14:00:01;63.67;;;31.10;;
12762;SDS011;6445;52.490;13.378;2023-12-07T14:02:26;63.25;;;31.42;;
12762;SDS011;6445;52.490;13.378;2023-12-07T14:04:53;69.55;;;32.97;;
12762;SDS011;6445;52.490;13.378;2023-12-07T14:07:20;73.35;;;32.88;;
12762;SDS011;6445;52.490;13.378;2023-12-07T14:09:46;69.97;;;32.67;;
12762;SDS011;6445;52.490;13.378;2023-12-07T14:12:13;72.97;;;33.63;;
12762;SDS011;6445;52.490;13.378;2023-12-07T14:14:43;73.50;;;33.72;;
12762;SDS011;6445;52.490;13.378;2023-12-07T14:17:09;66.07;;;31.70;;
12762;SDS011;6445;52.490;13.378;2023-12-07T14:19:34;76.95;;;34.63;;